Time;durP1;ratioP1;P1;durP2;ratioP2;P2;SDS_P1;SDS_P2;PMS_P1;PMS_P2;Temp;Humidity;BMP_temperature;BMP_pressure;BME280_temperature;BME280_humidity;BME280_pressure;Samples;Min_cycle;Max_cycle;Signal;HPM_P1;HPM_P2
2021/05/27 00:00:24;;;;;;;12.68;1.20;;;;;;;7.86;55.90;100726.94;4989707;28;20072;-67
2021/05/27 00:02:50;;;;;;;10.30;0.75;;;;;;;7.38;57.23;100724.88;5009161;28;20049;-67
2021/05/27 00:05:16;;;;;;;13.85;2.00;;;;;;;7.88;56.15;100725.16;5006709;28;20468;-68
2021/05/27 00:07:42;;;;;;;8.10;1.00;;;;;;;7.90;56.40;100731.16;5004573;28;20041;-68
2021/05/27 00:10:10;;;;;;;5.90;1.45;;;;;;;8.14;55.91;100732.97;4988316;28;20034;-68
2021/05/27 00:12:35;;;;;;;7.43;1.20;;;;;;;8.09;55.56;100732.28;5003615;28;20495;-67
2021/05/27 00:15:02;;;;;;;5.82;0.88;;;;;;;8.08;55.82;100735.78;5005034;28;20033;-67
2021/05/27 00:17:27;;;;;;;8.13;0.93;;;;;;;7.98;55.77;100729.19;5005845;28;20641;-68
2021/05/27 00:19:53;;;;;;;10.93;0.98;;;;;;;8.04;55.82;100736.78;5021154;28;20125;-67
2021/05/27 00:22:19;;;;;;;9.73;0.98;;;;;;;7.78;56.39;100734.13;5005079;28;20125;-68
2021/05/27 00:24:44;;;;;;;8.98;1.52;;;;;;;7.99;55.79;100737.81;5019722;28;20037;-68
2021/05/27 00:27:10;;;;;;;3.63;0.88;;;;;;;8.22;55.45;100755.31;5005938;28;20637;-68
2021/05/27 00:29:35;;;;;;;6.72;0.80;;;;;;;7.53;57.40;100745.22;5004007;28;20104;-68
2021/05/27 00:32:01;;;;;;;16.63;1.90;;;;;;;8.01;55.83;100742.09;4991783;28;20037;-68
2021/05/27 00:34:27;;;;;;;8.52;0.75;;;;;;;7.50;56.85;100745.34;5003557;28;20037;-68
2021/05/27 00:36:52;;;;;;;13.13;1.48;;;;;;;7.48;57.43;100745.38;5022396;28;20040;-67
2021/05/27 00:39:18;;;;;;;6.75;1.08;;;;;;;7.84;56.34;100754.75;5004125;28;20519;-69
2021/05/27 00:41:43;;;;;;;8.68;0.88;;;;;;;7.69;56.20;100751.72;5004745;28;20033;-69
2021/05/27 00:44:23;;;;;;;11.77;1.27;;;;;;;7.74;56.25;100756.78;5003905;28;20798;-67
2021/05/27 00:46:50;;;;;;;3.20;0.90;;;;;;;7.30;57.73;100759.75;5006329;28;20475;-68
2021/05/27 00:49:16;;;;;;;11.32;1.67;;;;;;;7.91;56.04;100754.53;5003759;28;20041;-68
2021/05/27 00:51:43;;;;;;;12.55;1.52;;;;;;;7.90;56.45;100757.19;5005856;28;20022;-67
2021/05/27 00:54:10;;;;;;;7.18;0.50;;;;;;;8.21;55.31;100762.28;4987336;28;20120;-67
2021/05/27 00:56:36;;;;;;;6.03;1.00;;;;;;;7.99;55.87;100756.03;5004605;28;20045;-67
2021/05/27 00:59:02;;;;;;;7.88;0.80;;;;;;;8.08;55.43;100756.59;5009921;28;23557;-67
2021/05/27 01:01:28;;;;;;;9.68;1.40;;;;;;;8.21;55.13;100761.44;5005493;28;20022;-67
2021/05/27 01:03:54;;;;;;;5.72;0.75;;;;;;;8.12;55.47;100758.22;5005475;28;20044;-67
2021/05/27 01:06:19;;;;;;;5.55;1.17;;;;;;;7.81;56.14;100762.66;5004803;28;20037;-69
2021/05/27 01:08:46;;;;;;;5.85;1.25;;;;;;;7.93;56.08;100763.13;5007139;28;20037;-69
2021/05/27 01:11:12;;;;;;;9.75;0.93;;;;;;;8.29;54.85;100768.09;5010235;28;20036;-67
2021/05/27 01:13:38;;;;;;;8.63;0.82;;;;;;;8.01;55.83;100768.09;4987386;28;20034;-67
2021/05/27 01:16:04;;;;;;;5.82;0.95;;;;;;;7.81;56.06;100762.66;5002322;28;20030;-67
2021/05/27 01:18:31;;;;;;;4.78;0.70;;;;;;;7.97;55.83;100763.91;4986742;28;20029;-66
2021/05/27 01:20:58;;;;;;;11.82;1.38;;;;;;;7.93;56.41;100765.72;5002958;28;20038;-67
2021/05/27 01:23:26;;;;;;;11.48;0.90;;;;;;;8.14;55.40;100769.44;5004628;28;20514;-69
2021/05/27 01:25:57;;;;;;;5.43;0.95;;;;;;;7.78;56.60;100762.75;4995561;28;20399;-67
2021/05/27 01:28:24;;;;;;;10.40;1.33;;;;;;;8.21;55.08;100777.91;4994470;28;20034;-67
2021/05/27 01:30:50;;;;;;;5.60;0.98;;;;;;;7.70;56.79;100771.63;5002534;28;20084;-67
2021/05/27 01:33:37;;;;;;;7.63;2.10;;;;;;;8.29;55.75;100778.53;5002510;28;20029;-67
2021/05/27 01:36:06;;;;;;;4.45;1.00;;;;;;;8.05;55.95;100771.47;5003437;28;20056;-68
2021/05/27 01:38:32;;;;;;;6.38;0.95;;;;;;;8.20;55.87;100781.38;5002650;28;20038;-67
2021/05/27 01:41:00;;;;;;;7.03;1.23;;;;;;;8.35;55.43;100782.66;4994651;28;20491;-69
2021/05/27 01:43:27;;;;;;;3.05;0.68;;;;;;;8.16;55.65;100785.00;5001006;28;20033;-69
2021/05/27 01:45:54;;;;;;;12.32;1.30;;;;;;;7.76;57.07;100787.94;4989089;28;20041;-67
2021/05/27 01:48:21;;;;;;;9.48;0.73;;;;;;;7.93;56.83;100796.13;5003276;28;20511;-67
2021/05/27 01:50:48;;;;;;;9.05;0.68;;;;;;;8.23;55.63;100790.88;4986679;28;20069;-69
2021/05/27 01:53:14;;;;;;;6.57;1.00;;;;;;;8.19;55.85;100794.47;5005336;28;20192;-67
2021/05/27 01:55:42;;;;;;;3.40;0.70;;;;;;;8.20;55.97;100796.16;5005608;28;20037;-67
2021/05/27 01:58:09;;;;;;;7.97;0.77;;;;;;;7.86;56.48;100794.59;5004300;28;20042;-69
2021/05/27 02:00:35;;;;;;;14.77;1.02;;;;;;;7.76;56.37;100796.63;5007797;28;20049;-67
2021/05/27 02:03:02;;;;;;;9.07;1.27;;;;;;;7.71;56.79;100795.88;5002152;28;20038;-67
2021/05/27 02:05:31;;;;;;;12.40;0.77;;;;;;;8.06;55.89;100804.41;5003445;28;20034;-67
2021/05/27 02:07:59;;;;;;;4.93;0.47;;;;;;;8.05;56.08;100797.50;4989447;28;20037;-67
2021/05/27 02:10:35;;;;;;;7.18;1.48;;;;;;;7.36;57.86;100800.34;5003002;28;20129;-67
2021/05/27 02:13:01;;;;;;;11.38;1.45;;;;;;;8.18;56.04;100800.56;5001640;28;20437;-67
2021/05/27 02:15:27;;;;;;;10.15;1.27;;;;;;;8.08;55.81;100803.47;4984645;28;20022;-69
2021/05/27 02:17:54;;;;;;;5.22;0.63;;;;;;;7.92;56.13;100808.28;5003558;28;20030;-67
2021/05/27 02:20:20;;;;;;;16.05;1.25;;;;;;;8.08;55.74;100805.22;5002055;28;20049;-69
2021/05/27 02:22:46;;;;;;;6.30;1.02;;;;;;;7.86;55.86;100812.81;5002397;28;20034;-67
2021/05/27 02:25:17;;;;;;;8.60;0.98;;;;;;;7.86;55.82;100799.81;5002265;28;20025;-69
2021/05/27 02:27:46;;;;;;;5.82;0.60;;;;;;;8.09;55.59;100804.31;5004079;28;20065;-68
2021/05/27 02:30:14;;;;;;;10.02;0.80;;;;;;;8.08;54.94;100811.25;5002792;28;20026;-67
2021/05/27 02:32:42;;;;;;;3.95;0.40;;;;;;;7.71;56.68;100806.31;5004623;28;20030;-67
2021/05/27 02:35:09;;;;;;;6.88;1.20;;;;;;;7.87;55.94;100809.31;5010147;28;20776;-67
2021/05/27 02:37:35;;;;;;;11.48;0.98;;;;;;;7.57;56.39;100801.50;5004764;28;20030;-68
2021/05/27 02:40:05;;;;;;;6.93;0.90;;;;;;;7.80;55.91;100813.00;5005581;28;20033;-68
2021/05/27 02:42:32;;;;;;;10.98;0.73;;;;;;;7.86;56.03;100818.88;4989533;28;20061;-68
2021/05/27 02:44:58;;;;;;;7.50;0.85;;;;;;;8.21;54.68;100824.78;5006137;28;20029;-67
2021/05/27 02:47:25;;;;;;;6.15;0.70;;;;;;;7.67;56.16;100815.97;5005650;28;20038;-67
2021/05/27 02:49:51;;;;;;;6.60;0.80;;;;;;;7.65;56.04;100815.16;5012002;28;20032;-68
2021/05/27 02:52:17;;;;;;;14.85;1.02;;;;;;;7.91;55.17;100821.31;5007370;28;20041;-67
2021/05/27 02:54:43;;;;;;;8.90;1.10;;;;;;;7.60;56.07;100811.84;5008944;28;20112;-67
2021/05/27 02:57:09;;;;;;;8.95;0.73;;;;;;;7.88;55.41;100816.22;5005298;28;20030;-67
2021/05/27 02:59:35;;;;;;;9.52;1.08;;;;;;;7.62;56.25;100828.22;5005676;28;20037;-68
2021/05/27 03:02:03;;;;;;;5.80;0.50;;;;;;;7.19;57.53;100820.72;5005460;28;20174;-67
2021/05/27 03:04:30;;;;;;;8.50;0.88;;;;;;;7.54;56.87;100824.97;5003554;28;20506;-68
2021/05/27 03:06:57;;;;;;;4.05;0.50;;;;;;;7.41;56.69;100831.41;4989428;28;20454;-67
2021/05/27 03:09:23;;;;;;;7.28;0.80;;;;;;;7.60;56.18;100827.44;5005907;28;20040;-67
2021/05/27 03:11:53;;;;;;;13.27;1.55;;;;;;;8.00;55.07;100828.84;4988387;28;20044;-68
2021/05/27 03:14:19;;;;;;;7.63;1.35;;;;;;;7.97;55.08;100828.97;5006104;28;20084;-67
2021/05/27 03:16:49;;;;;;;9.27;0.77;;;;;;;7.92;55.47;100829.09;4989256;28;20483;-68
2021/05/27 03:19:15;;;;;;;8.10;0.88;;;;;;;7.86;55.30;100833.63;5004845;28;20057;-67
2021/05/27 03:21:41;;;;;;;8.90;0.55;;;;;;;7.77;56.14;100839.09;4999405;28;20073;-67
2021/05/27 03:24:07;;;;;;;4.40;1.40;;;;;;;7.80;55.74;100839.88;5004693;28;20034;-67
2021/05/27 03:26:33;;;;;;;14.95;0.68;;;;;;;8.13;54.86;100837.16;5005322;28;20081;-67
2021/05/27 03:28:59;;;;;;;8.48;0.50;;;;;;;7.90;55.77;100841.31;5005764;28;20034;-69
2021/05/27 03:31:24;;;;;;;6.82;1.08;;;;;;;7.36;57.02;100838.50;5005407;28;20116;-67
2021/05/27 03:33:53;;;;;;;11.30;1.27;;;;;;;7.82;55.53;100843.25;4999371;28;20029;-68
2021/05/27 03:36:19;;;;;;;6.80;1.00;;;;;;;7.64;56.22;100849.00;5001268;28;20034;-69
2021/05/27 03:38:47;;;;;;;3.60;0.82;;;;;;;7.81;55.70;100849.38;5006123;28;20499;-67
2021/05/27 03:41:14;;;;;;;4.10;0.88;;;;;;;7.43;56.93;100853.03;5006166;28;20450;-68
2021/05/27 03:43:41;;;;;;;8.32;1.20;;;;;;;7.77;55.75;100854.72;5004749;28;20038;-67
2021/05/27 03:46:08;;;;;;;5.18;0.60;;;;;;;7.67;55.93;100849.78;5005711;28;20036;-67
2021/05/27 03:48:34;;;;;;;8.63;0.95;;;;;;;7.53;56.06;100864.88;4990100;28;20041;-68
2021/05/27 03:51:00;;;;;;;10.63;1.13;;;;;;;7.69;55.46;100863.59;5008997;28;20025;-67
2021/05/27 03:53:30;;;;;;;5.18;1.05;;;;;;;7.61;55.03;100865.56;5004032;28;20124;-67
2021/05/27 03:56:05;;;;;;;6.38;0.77;;;;;;;7.79;54.78;100865.94;5004404;28;20072;-68
2021/05/27 04:01:20;;;;;;;11.38;2.13;;;;;;;7.39;55.96;100860.03;5004704;28;20096;-67
2021/05/27 04:07:13;;;;;;;6.07;0.80;;;;;;;7.83;54.99;100864.97;5004881;28;20037;-67
2021/05/27 04:09:39;;;;;;;11.00;1.25;;;;;;;7.64;55.62;100875.84;5001937;28;20038;-68
2021/05/27 04:17:34;;;;;;;7.72;1.23;;;;;;;7.93;54.38;100877.63;4998677;28;20038;-67
2021/05/27 04:20:05;;;;;;;3.28;0.70;;;;;;;7.35;55.60;100888.78;5005574;28;20097;-69
2021/05/27 04:22:30;;;;;;;7.38;0.57;;;;;;;7.47;54.67;100878.91;4989438;28;20040;-68
2021/05/27 04:24:55;;;;;;;4.85;0.52;;;;;;;7.93;53.94;100882.00;5005630;28;20030;-67
2021/05/27 04:27:21;;;;;;;4.72;0.98;;;;;;;8.05;53.00;100886.00;5005076;28;20101;-67
2021/05/27 04:29:46;;;;;;;1.48;0.40;;;;;;;8.11;52.76;100886.69;5006096;28;20463;-67
2021/05/27 04:32:53;;;;;;;6.57;0.40;;;;;;;7.93;52.42;100887.19;5004618;28;20391;-68
2021/05/27 04:34:57;;;;;;;10.25;0.82;;;;;;;8.02;52.28;100886.94;5003737;28;20026;-67
2021/05/27 04:37:23;;;;;;;3.80;1.08;;;;;;;8.02;51.83;100886.09;5005137;28;20160;-69
2021/05/27 04:39:48;;;;;;;4.70;0.52;;;;;;;7.96;51.99;100894.94;5007080;28;20119;-67
2021/05/27 04:42:14;;;;;;;4.88;0.30;;;;;;;7.98;51.65;100894.88;5006981;28;20042;-68
2021/05/27 04:44:39;;;;;;;5.40;0.30;;;;;;;7.84;52.05;100897.88;5006430;28;20037;-68
2021/05/27 04:47:05;;;;;;;3.25;0.20;;;;;;;8.01;51.76;100900.84;5006585;28;20570;-68
2021/05/27 04:49:30;;;;;;;5.47;0.40;;;;;;;8.03;52.01;100912.06;4998246;28;20030;-67
2021/05/27 04:51:56;;;;;;;2.25;0.22;;;;;;;7.88;52.93;100912.50;5004056;28;20037;-67
2021/05/27 04:54:21;;;;;;;5.43;0.60;;;;;;;7.74;53.43;100908.53;5005173;28;20026;-68
2021/05/27 04:56:47;;;;;;;3.15;0.45;;;;;;;8.13;52.24;100918.72;5003268;28;20040;-68
2021/05/27 04:59:12;;;;;;;6.18;0.98;;;;;;;8.26;52.25;100910.56;5004503;28;20061;-67
2021/05/27 05:01:38;;;;;;;9.52;0.30;;;;;;;8.26;52.47;100908.78;5004780;28;20107;-67
2021/05/27 05:04:03;;;;;;;1.52;0.50;;;;;;;8.16;52.78;100928.22;5002983;28;20029;-67
2021/05/27 05:06:29;;;;;;;11.57;0.77;;;;;;;8.50;52.23;100928.03;4997780;28;20488;-68
2021/05/27 05:08:55;;;;;;;10.88;1.80;;;;;;;8.32;53.03;100920.78;5003311;28;20042;-68
2021/05/27 05:11:21;;;;;;;7.25;0.88;;;;;;;8.16;53.01;100933.41;5007542;28;20041;-68
2021/05/27 05:13:47;;;;;;;3.35;0.60;;;;;;;8.32;52.21;100931.22;5004009;28;20514;-67
2021/05/27 05:16:12;;;;;;;5.18;0.50;;;;;;;7.95;52.42;100942.66;5003724;28;20047;-67
2021/05/27 05:18:38;;;;;;;5.13;0.77;;;;;;;8.37;51.35;100947.53;5002968;28;20034;-68
2021/05/27 05:21:03;;;;;;;5.05;0.40;;;;;;;8.13;51.60;100949.94;5003700;28;20037;-68
2021/05/27 05:23:29;;;;;;;4.78;0.30;;;;;;;8.26;51.56;100949.63;5003335;28;20057;-68
2021/05/27 05:25:54;;;;;;;6.05;0.30;;;;;;;8.63;50.40;100956.31;5004787;28;20112;-67
2021/05/27 05:28:20;;;;;;;1.95;0.20;;;;;;;8.13;50.85;100957.75;5003993;28;20053;-67
2021/05/27 05:30:45;;;;;;;0.50;0.20;;;;;;;8.82;49.59;100962.69;5004020;28;20029;-67
2021/05/27 05:33:11;;;;;;;4.25;0.38;;;;;;;8.42;49.64;100963.88;4994203;28;20080;-68
2021/05/27 05:35:37;;;;;;;6.43;0.30;;;;;;;8.69;50.03;100963.94;4982627;28;20125;-68
2021/05/27 05:38:03;;;;;;;3.78;0.80;;;;;;;8.87;49.73;100965.16;5004265;28;20117;-68
2021/05/27 05:40:30;;;;;;;4.10;0.55;;;;;;;8.86;50.10;100968.69;5008550;28;20029;-68
2021/05/27 05:42:56;;;;;;;7.32;0.45;;;;;;;8.68;50.38;100968.31;5006483;28;20033;-68
2021/05/27 05:45:22;;;;;;;2.75;0.32;;;;;;;8.95;49.94;100971.84;5008412;28;20052;-69
2021/05/27 05:47:50;;;;;;;1.55;0.38;;;;;;;9.14;49.83;100979.06;5004611;28;20034;-68
2021/05/27 05:50:45;;;;;;;2.80;0.30;;;;;;;9.39;49.28;100979.16;5002068;28;20057;-67
2021/05/27 05:53:08;;;;;;;4.13;1.00;;;;;;;9.57;49.65;100985.50;5002203;28;20041;-67
2021/05/27 05:55:34;;;;;;;4.25;0.93;;;;;;;8.76;51.79;100986.34;4994516;28;20037;-67
2021/05/27 05:58:00;;;;;;;4.97;0.63;;;;;;;9.66;50.42;100993.00;5003199;28;20125;-68
2021/05/27 06:00:26;;;;;;;11.43;0.73;;;;;;;9.42;50.68;100984.25;5001861;28;20052;-67
2021/05/27 06:02:51;;;;;;;12.10;0.82;;;;;;;8.92;52.07;100992.81;5003459;28;20029;-68
2021/05/27 06:05:34;;;;;;;7.93;1.23;;;;;;;8.97;52.70;100996.13;5005145;28;20054;-68
2021/05/27 06:08:13;;;;;;;13.40;1.00;;;;;;;9.25;52.01;101003.03;5011582;28;20450;-67
2021/05/27 06:10:39;;;;;;;6.20;0.85;;;;;;;9.03;52.63;100999.41;5015578;28;20038;-67
2021/05/27 06:13:05;;;;;;;5.18;1.10;;;;;;;8.85;53.39;100993.91;4991933;28;20037;-68
2021/05/27 06:15:31;;;;;;;6.28;0.68;;;;;;;9.40;52.35;101002.56;5007320;28;20103;-69
2021/05/27 06:17:57;;;;;;;10.32;0.93;;;;;;;9.33;52.51;101008.03;5007281;28;20114;-68
2021/05/27 06:20:23;;;;;;;8.70;0.85;;;;;;;9.57;52.03;101007.22;4997738;28;20090;-68
2021/05/27 06:22:50;;;;;;;6.35;0.80;;;;;;;9.26;52.51;101011.75;5007727;28;20556;-67
2021/05/27 06:25:18;;;;;;;3.45;1.17;;;;;;;9.27;52.35;101016.91;5007463;28;20029;-67
2021/05/27 06:27:43;;;;;;;11.52;1.20;;;;;;;9.47;51.81;101018.00;5006416;28;20054;-67
2021/05/27 06:30:10;;;;;;;10.18;1.38;;;;;;;8.86;53.23;101026.03;5008077;28;20065;-68
2021/05/27 06:32:37;;;;;;;7.68;1.05;;;;;;;9.35;52.47;101025.34;5005238;28;20042;-67
2021/05/27 06:35:05;;;;;;;6.20;0.75;;;;;;;9.03;52.90;101034.19;5008405;28;20176;-67
2021/05/27 06:37:31;;;;;;;9.63;1.40;;;;;;;8.79;53.19;101029.72;5005907;28;20080;-67
2021/05/27 06:39:56;;;;;;;9.55;1.23;;;;;;;9.19;51.81;101034.56;4981280;28;20034;-67
2021/05/27 06:42:22;;;;;;;7.38;0.98;;;;;;;9.68;51.21;101034.69;5013064;28;21097;-67
2021/05/27 06:44:47;;;;;;;4.10;0.47;;;;;;;9.51;51.59;101043.94;5005413;28;20041;-67
2021/05/27 06:47:13;;;;;;;7.88;0.80;;;;;;;9.15;52.35;101039.00;5008763;28;20061;-67
2021/05/27 06:49:39;;;;;;;10.50;1.35;;;;;;;8.99;52.81;101043.00;5005923;28;20029;-67
2021/05/27 06:52:04;;;;;;;6.50;0.75;;;;;;;9.01;52.66;101035.13;5005586;28;20034;-67
2021/05/27 06:54:30;;;;;;;15.18;1.27;;;;;;;9.32;51.61;101051.53;5005481;28;20125;-67
2021/05/27 06:56:57;;;;;;;7.78;0.70;;;;;;;9.45;50.79;101046.75;5006257;28;20049;-67
2021/05/27 06:59:23;;;;;;;6.95;0.57;;;;;;;9.26;51.21;101054.31;5007004;28;20598;-66
2021/05/27 07:01:49;;;;;;;4.00;0.45;;;;;;;9.47;51.05;101051.94;5007149;28;20042;-68
2021/05/27 07:04:14;;;;;;;7.10;0.63;;;;;;;9.33;50.95;101060.19;4989189;28;20395;-68
2021/05/27 07:06:40;;;;;;;13.52;1.40;;;;;;;9.59;50.98;101064.59;5005962;28;20053;-68
2021/05/27 07:09:06;;;;;;;4.25;0.60;;;;;;;9.60;50.34;101071.50;5005224;28;20034;-68
2021/05/27 07:11:32;;;;;;;5.43;0.60;;;;;;;9.92;49.55;101069.59;5007122;28;20057;-67
2021/05/27 07:13:57;;;;;;;6.60;1.38;;;;;;;9.59;49.71;101073.25;5006687;28;20045;-67
2021/05/27 07:16:23;;;;;;;5.45;0.55;;;;;;;9.35;50.29;101071.44;5022627;28;20092;-67
2021/05/27 07:18:48;;;;;;;4.80;0.88;;;;;;;9.92;49.59;101082.66;5004144;28;20033;-67
2021/05/27 07:21:14;;;;;;;4.85;0.52;;;;;;;9.80;49.82;101079.53;5007086;28;20095;-67
2021/05/27 07:23:40;;;;;;;4.65;0.52;;;;;;;9.69;50.72;101092.06;5005725;28;20532;-67
2021/05/27 07:26:05;;;;;;;9.75;0.57;;;;;;;9.10;51.29;101087.00;5005465;28;20033;-67
2021/05/27 07:28:32;;;;;;;9.20;1.10;;;;;;;8.78;52.30;101083.56;5022056;28;20030;-68
2021/05/27 07:30:58;;;;;;;5.30;0.82;;;;;;;9.02;51.57;101099.41;5006008;28;20127;-67
2021/05/27 07:33:24;;;;;;;4.43;0.55;;;;;;;9.51;50.61;101093.53;5008455;28;20062;-67
2021/05/27 07:35:49;;;;;;;5.18;0.70;;;;;;;9.74;50.10;101099.75;5009381;28;20124;-68
2021/05/27 07:38:15;;;;;;;3.40;1.38;;;;;;;8.99;51.82;101105.56;5006772;28;20048;-68
2021/05/27 07:40:40;;;;;;;4.80;0.30;;;;;;;9.43;50.96;101102.50;5006044;28;20184;-67
2021/05/27 07:43:06;;;;;;;7.68;0.85;;;;;;;9.49;50.75;101099.69;5001988;28;20502;-67
2021/05/27 07:45:31;;;;;;;2.58;0.65;;;;;;;9.13;51.70;101113.81;5005719;28;20447;-69
2021/05/27 07:47:57;;;;;;;12.35;1.17;;;;;;;9.43;50.90;101115.53;5004683;28;20168;-69
2021/05/27 07:50:23;;;;;;;4.63;0.73;;;;;;;9.62;50.77;101118.44;4996315;28;20026;-69
2021/05/27 07:52:50;;;;;;;7.80;1.00;;;;;;;10.02;49.93;101125.84;5004654;28;20377;-69
2021/05/27 07:55:16;;;;;;;8.18;1.05;;;;;;;9.90;49.72;101132.31;5008403;28;20515;-68
2021/05/27 07:57:41;;;;;;;3.60;0.57;;;;;;;9.55;50.83;101130.81;4988561;28;20527;-70
2021/05/27 08:00:08;;;;;;;4.15;0.85;;;;;;;9.35;51.59;101134.91;5005147;28;20535;-69
2021/05/27 08:02:41;;;;;;;7.22;0.60;;;;;;;9.58;51.19;101133.31;5004361;28;20026;-70
2021/05/27 08:05:07;;;;;;;3.95;1.05;;;;;;;9.87;51.38;101142.00;5011077;28;20492;-67
2021/05/27 08:07:32;;;;;;;3.33;0.52;;;;;;;10.19;50.24;101136.56;5006400;28;20033;-67
2021/05/27 08:09:58;;;;;;;3.78;1.00;;;;;;;10.08;49.68;101143.03;4993541;28;20081;-68
2021/05/27 08:12:23;;;;;;;4.90;0.40;;;;;;;10.05;49.97;101146.63;5020427;28;20117;-67
2021/05/27 08:14:49;;;;;;;2.45;0.30;;;;;;;10.33;49.75;101154.38;4984930;28;20029;-68
2021/05/27 08:17:14;;;;;;;4.22;1.23;;;;;;;10.32;49.84;101154.41;5004819;28;20044;-68
2021/05/27 08:19:40;;;;;;;4.90;0.85;;;;;;;10.06;50.11;101163.13;5001604;28;20029;-67
2021/05/27 08:22:06;;;;;;;6.97;0.43;;;;;;;9.97;49.43;101159.09;4985127;28;20073;-67
2021/05/27 08:24:31;;;;;;;2.60;0.30;;;;;;;10.66;48.53;101163.69;4985030;28;20045;-68
2021/05/27 08:26:57;;;;;;;1.95;0.57;;;;;;;10.87;47.87;101165.56;5002260;28;20121;-67
2021/05/27 08:29:23;;;;;;;7.78;0.93;;;;;;;10.67;48.04;101170.63;5001862;28;20041;-67
2021/05/27 08:31:48;;;;;;;11.23;1.75;;;;;;;10.72;47.83;101173.94;5003617;28;20064;-67
2021/05/27 08:34:14;;;;;;;3.60;0.30;;;;;;;10.56;48.36;101179.69;5003523;28;20057;-67
2021/05/27 08:36:40;;;;;;;11.25;0.70;;;;;;;10.80;47.58;101182.38;5005908;28;20495;-67
2021/05/27 08:39:07;;;;;;;6.97;0.73;;;;;;;10.38;48.05;101183.81;5004413;28;20034;-68
2021/05/27 08:41:33;;;;;;;6.13;0.93;;;;;;;10.68;48.06;101188.84;5015230;28;20074;-68
2021/05/27 08:44:01;;;;;;;8.57;0.30;;;;;;;10.41;48.19;101190.69;5000664;28;20068;-69
2021/05/27 08:46:26;;;;;;;5.97;0.93;;;;;;;10.61;48.94;101190.84;5000768;28;20524;-69
2021/05/27 08:48:52;;;;;;;7.68;0.35;;;;;;;10.92;47.99;101192.41;5001881;28;20068;-67
2021/05/27 08:51:18;;;;;;;1.38;0.13;;;;;;;10.57;46.54;101201.44;5000133;28;20234;-67
2021/05/27 08:53:47;;;;;;;6.03;0.20;;;;;;;11.32;44.51;101206.63;5000527;28;20029;-68
2021/05/27 08:56:13;;;;;;;4.40;0.20;;;;;;;11.25;44.71;101205.16;5003954;28;20087;-67
2021/05/27 08:58:42;;;;;;;7.13;1.08;;;;;;;11.12;45.00;101209.97;5007192;28;20438;-68
2021/05/27 09:01:08;;;;;;;3.45;0.28;;;;;;;11.72;44.52;101214.69;5005468;28;20041;-67
2021/05/27 09:03:45;;;;;;;8.20;0.55;;;;;;;12.17;43.72;101216.41;5004823;28;20049;-67
2021/05/27 09:06:11;;;;;;;0.95;0.22;;;;;;;13.10;42.34;101220.25;5003010;28;20038;-67
2021/05/27 09:08:39;;;;;;;3.88;0.30;;;;;;;12.12;41.85;101218.38;5003029;28;20048;-67
2021/05/27 09:11:08;;;;;;;7.32;0.70;;;;;;;12.22;42.38;101220.56;5003620;28;20029;-67
2021/05/27 09:13:36;;;;;;;17.63;1.67;;;;;;;12.67;42.04;101226.53;5003616;28;20487;-67
2021/05/27 09:16:11;;;;;;;8.55;1.13;;;;;;;12.14;43.31;101222.63;5019395;28;20045;-68
2021/05/27 09:18:41;;;;;;;8.82;0.90;;;;;;;12.55;42.83;101227.91;5004502;28;20049;-68
2021/05/27 09:21:09;;;;;;;2.53;0.28;;;;;;;12.28;42.35;101236.00;5001418;28;20038;-68
2021/05/27 09:23:37;;;;;;;2.92;0.10;;;;;;;12.93;40.95;101238.53;5003179;28;20046;-67
2021/05/27 09:26:12;;;;;;;8.05;0.70;;;;;;;12.10;41.90;101247.25;4987203;28;20347;-67
2021/05/27 09:28:37;;;;;;;3.85;0.52;;;;;;;11.60;42.65;101250.91;4995622;28;20394;-67
2021/05/27 09:31:06;;;;;;;5.88;0.73;;;;;;;11.87;42.06;101256.88;5004843;28;20109;-67
2021/05/27 09:33:43;;;;;;;3.85;0.20;;;;;;;12.42;41.96;101255.53;5008463;28;20042;-67
2021/05/27 09:36:11;;;;;;;4.80;0.32;;;;;;;12.12;41.78;101255.06;5019804;28;20096;-67
2021/05/27 09:38:39;;;;;;;5.22;0.20;;;;;;;12.10;41.19;101267.38;5003846;28;20128;-67
2021/05/27 09:41:18;;;;;;;1.20;0.10;;;;;;;12.14;41.79;101272.41;5002335;28;20037;-67
2021/05/27 09:43:50;;;;;;;0.75;0.15;;;;;;;12.18;42.15;101278.38;5002652;28;20056;-68
2021/05/27 09:46:17;;;;;;;4.45;0.25;;;;;;;11.62;42.97;101282.25;5004654;28;20038;-68
2021/05/27 09:48:46;;;;;;;1.02;0.10;;;;;;;11.14;43.81;101281.41;4985908;28;20037;-67
2021/05/27 09:51:24;;;;;;;4.55;0.28;;;;;;;11.05;43.82;101285.19;5004566;28;20053;-68
2021/05/27 09:53:54;;;;;;;3.08;0.82;;;;;;;12.37;42.10;101288.97;4985532;28;20030;-68
2021/05/27 09:56:32;;;;;;;1.10;0.50;;;;;;;12.78;40.62;101282.03;4985211;28;20030;-68
2021/05/27 09:58:58;;;;;;;4.22;0.13;;;;;;;12.28;41.37;101288.41;5002043;28;20045;-67
2021/05/27 10:01:23;;;;;;;1.83;0.20;;;;;;;12.51;42.12;101286.63;5004687;28;20033;-67
2021/05/27 10:03:49;;;;;;;1.70;0.28;;;;;;;11.77;43.93;101292.19;4998748;28;20056;-68
2021/05/27 10:06:14;;;;;;;2.33;0.20;;;;;;;12.10;43.47;101298.81;4985225;28;20137;-68
2021/05/27 10:08:50;;;;;;;4.53;0.47;;;;;;;12.36;43.59;101306.47;5003030;28;20033;-68
2021/05/27 10:11:17;;;;;;;2.05;0.40;;;;;;;12.33;43.19;101303.97;4985872;28;20045;-68
2021/05/27 10:13:43;;;;;;;7.25;0.52;;;;;;;12.21;43.19;101304.47;4994702;28;20030;-68
2021/05/27 10:16:15;;;;;;;3.72;0.77;;;;;;;12.45;43.27;101305.25;5002900;28;20037;-68
2021/05/27 10:18:41;;;;;;;3.53;0.20;;;;;;;12.50;42.73;101316.38;5004540;28;20092;-68
2021/05/27 10:21:08;;;;;;;3.50;0.40;;;;;;;12.19;43.10;101320.25;5004512;28;20176;-67
2021/05/27 10:23:33;;;;;;;2.25;0.45;;;;;;;12.80;41.47;101316.06;4987237;28;20069;-68
2021/05/27 10:25:59;;;;;;;1.08;0.30;;;;;;;12.70;41.57;101321.69;5004869;28;20060;-68
2021/05/27 10:28:26;;;;;;;3.22;0.70;;;;;;;12.60;41.98;101329.97;5006085;28;20466;-68
2021/05/27 10:30:52;;;;;;;2.25;0.30;;;;;;;13.30;41.33;101326.16;4985860;28;20089;-67
2021/05/27 10:33:19;;;;;;;3.40;0.30;;;;;;;12.74;41.29;101327.66;5004955;28;20438;-68
2021/05/27 10:35:58;;;;;;;2.83;0.30;;;;;;;13.30;41.11;101331.41;5003520;28;20050;-67
2021/05/27 10:38:39;;;;;;;5.25;0.20;;;;;;;12.78;41.61;101333.63;5018982;28;20033;-67
2021/05/27 10:41:09;;;;;;;5.67;0.30;;;;;;;12.49;42.20;101335.63;5005284;28;20080;-67
2021/05/27 10:43:36;;;;;;;3.30;0.32;;;;;;;12.11;43.63;101338.06;4998465;28;20288;-67
2021/05/27 10:46:05;;;;;;;6.47;1.25;;;;;;;11.65;43.71;101345.00;5003626;28;20571;-67
2021/05/27 10:48:43;;;;;;;3.35;0.30;;;;;;;11.36;45.45;101352.16;5003889;28;20159;-67
2021/05/27 10:51:24;;;;;;;4.63;0.45;;;;;;;10.63;46.81;101358.94;5017774;28;20029;-67
2021/05/27 10:53:51;;;;;;;2.17;0.38;;;;;;;11.43;45.21;101358.88;4981574;28;20044;-67
2021/05/27 10:56:41;;;;;;;6.00;0.47;;;;;;;11.30;45.86;101360.22;5004862;28;20480;-67
2021/05/27 10:59:12;;;;;;;1.75;0.20;;;;;;;11.64;44.67;101364.22;5009630;28;20046;-67
2021/05/27 11:01:39;;;;;;;2.20;0.28;;;;;;;11.11;45.97;101365.25;4997180;28;20505;-69
2021/05/27 11:04:07;;;;;;;2.75;0.77;;;;;;;11.37;45.61;101377.41;5003719;28;20073;-67
2021/05/27 11:06:40;;;;;;;3.15;0.20;;;;;;;11.76;45.10;101376.88;4999506;28;20124;-68
2021/05/27 11:11:43;;;;;;;6.65;0.90;;;;;;;11.74;44.06;101389.16;5006629;28;20041;-67
2021/05/27 11:14:25;;;;;;;4.00;0.50;;;;;;;12.01;44.62;101389.09;4984911;28;20889;-67
2021/05/27 11:19:46;;;;;;;5.28;0.40;;;;;;;13.25;41.16;101385.84;5005163;28;20100;-67
2021/05/27 11:25:15;;;;;;;2.50;0.20;;;;;;;12.87;42.60;101393.56;5008561;28;20033;-67
2021/05/27 11:27:45;;;;;;;3.70;0.28;;;;;;;12.02;44.13;101399.53;5008720;28;20065;-67
2021/05/27 11:30:17;;;;;;;3.05;0.20;;;;;;;12.75;44.10;101407.19;5007056;28;20554;-67
2021/05/27 11:32:44;;;;;;;5.13;0.20;;;;;;;13.12;42.03;101409.16;5005533;28;20029;-66
2021/05/27 11:35:10;;;;;;;3.75;0.20;;;;;;;12.99;41.51;101410.59;4987720;28;20069;-67
2021/05/27 11:37:38;;;;;;;2.50;0.40;;;;;;;13.07;41.42;101414.59;5005319;28;20690;-67
2021/05/27 11:40:06;;;;;;;2.78;0.30;;;;;;;13.05;42.06;101408.56;5006177;28;20042;-67
2021/05/27 11:42:33;;;;;;;7.68;0.52;;;;;;;13.42;41.89;101414.84;5005998;28;20034;-67
2021/05/27 11:45:00;;;;;;;1.50;0.17;;;;;;;13.99;40.81;101411.53;5020750;28;20041;-67
2021/05/27 11:47:27;;;;;;;3.00;0.40;;;;;;;13.76;40.77;101417.81;5003929;28;20034;-67
2021/05/27 11:50:08;;;;;;;9.15;0.45;;;;;;;14.00;40.36;101413.22;5005974;28;20039;-67